Time;durP1;ratioP1;P1;durP2;ratioP2;P2;SDS_P1;SDS_P2;PMS_P1;PMS_P2;Temp;Humidity;BMP_temperature;BMP_pressure;BME280_temperature;BME280_humidity;BME280_pressure;Samples;Min_cycle;Max_cycle;Signal;HPM_P1;HPM_P2
2021/09/06 00:44:41;;;;;;;19.65;13.80;;;11.50;99.90;;;;;;5340110;23;20498;-96
2021/09/06 05:37:11;;;;;;;19.33;13.10;;;10.40;99.90;;;;;;4834148;29;20421;-96
2021/09/06 05:40:38;;;;;;;19.30;13.73;;;10.50;99.90;;;;;;4779181;30;20469;-96
2021/09/06 05:48:09;;;;;;;;;;;;;;;;;;;;;
2021/09/06 05:58:47;;;;;;;22.92;14.10;;;11.20;99.90;;;;;;4529271;31;20452;-96
2021/09/06 08:10:23;;;;;;;;;;;;;;;;;;;;;
2021/09/06 08:44:54;;;;;;;14.52;10.50;;;18.60;99.90;;;;;;6206481;22;20349;31
2021/09/06 08:47:31;;;;;;;14.80;10.55;;;18.60;99.90;;;;;;6143918;22;20464;-96
2021/09/06 08:53:21;;;;;;;17.17;10.20;;;18.90;99.90;;;;;;6229517;22;20381;-96
2021/09/06 08:55:55;;;;;;;14.43;10.10;;;18.90;99.90;;;;;;6232077;22;20399;-96
2021/09/06 09:01:54;;;;;;;13.52;9.77;;;19.20;99.90;;;;;;6198957;22;21566;-95
2021/09/06 09:11:23;;;;;;;12.82;9.10;;;19.50;99.90;;;;;;6215925;22;20464;31
2021/09/06 09:16:41;;;;;;;13.70;9.00;;;19.90;99.90;;;;;;6262042;22;20425;-96
2021/09/06 09:19:26;;;;;;;12.75;9.05;;;20.40;99.90;;;;;;6223179;22;20401;-94
2021/09/06 09:22:10;;;;;;;11.68;7.95;;;20.60;99.90;;;;;;6237646;23;20441;-96
2021/09/06 09:25:07;;;;;;;12.82;7.85;;;20.80;99.90;;;;;;6250210;22;20389;-96
2021/09/06 09:31:37;;;;;;;10.90;8.47;;;21.10;99.90;;;;;;6225297;22;20455;-95
2021/09/06 09:34:42;;;;;;;;;;;;;;;;;;;;;
2021/09/06 09:37:44;;;;;;;10.85;8.30;;;21.10;99.90;;;;;;6263265;22;20398;-95
2021/09/06 09:44:04;;;;;;;13.02;8.30;;;20.90;99.90;;;;;;6217231;22;20912;-96
2021/09/06 09:47:35;;;;;;;12.13;8.20;;;20.70;99.10;;;;;;6232877;22;20457;-96
2021/09/06 09:57:12;;;;;;;;;;;;;;;;;;;;;
2021/09/06 10:10:19;;;;;;;;;;;;;;;;;;;;;
2021/09/06 10:17:24;;;;;;;13.30;8.55;;;20.90;99.90;;;;;;6194498;22;20413;-96
2021/09/06 10:25:42;;;;;;;10.80;8.30;;;21.20;98.20;;;;;;6208184;22;20426;-96
2021/09/06 10:28:41;;;;;;;10.88;8.30;;;21.30;99.90;;;;;;6203221;22;20916;-96
2021/09/06 10:31:41;;;;;;;11.52;8.32;;;21.40;99.90;;;;;;6204233;22;20438;-96
2021/09/06 10:42:34;;;;;;;12.55;8.52;;;21.90;96.30;;;;;;6235568;22;20542;-95
2021/09/06 10:45:20;;;;;;;11.25;7.85;;;22.00;96.10;;;;;;6195942;22;20393;-96
2021/09/06 10:48:24;;;;;;;13.02;7.85;;;21.90;97.80;;;;;;6237667;22;20698;-96
2021/09/06 10:51:43;;;;;;;10.13;7.85;;;22.10;94.90;;;;;;6212309;22;20379;-94
2021/09/06 11:00:35;;;;;;;10.40;8.10;;;21.00;99.90;;;;;;6226145;22;20382;-95
2021/09/06 11:04:14;;;;;;;12.57;7.85;;;20.30;99.90;;;;;;6259917;22;20385;-96
2021/09/06 11:06:53;;;;;;;;;;;;;;;;;;;;;
2021/09/06 11:10:20;;;;;;;12.10;8.30;;;19.60;99.90;;;;;;6232209;22;20373;-96
2021/09/06 11:13:14;;;;;;;10.40;7.90;;;19.40;99.90;;;;;;6223792;22;20408;-96
2021/09/06 11:22:41;;;;;;;11.47;7.83;;;20.60;95.60;;;;;;6251550;22;20394;-96
2021/09/06 11:25:29;;;;;;;12.10;8.27;;;21.00;95.40;;;;;;6181476;23;20393;-95
2021/09/06 11:28:23;;;;;;;10.47;8.00;;;21.40;96.10;;;;;;6215335;22;21261;-96
2021/09/06 11:31:24;;;;;;;10.80;8.00;;;21.80;95.50;;;;;;6168551;23;20397;31
2021/09/06 11:40:33;;;;;;;17.83;10.32;;;22.20;99.30;;;;;;6141443;23;20410;-95
2021/09/06 11:46:39;;;;;;;14.80;9.70;;;22.00;99.90;;;;;;6202184;22;20475;31
2021/09/06 11:49:58;;;;;;;13.60;8.80;;;22.20;97.40;;;;;;6170588;22;20381;-96
2021/09/06 11:53:16;;;;;;;14.77;9.67;;;22.50;96.90;;;;;;6225149;23;20412;-96
2021/09/06 11:55:59;;;;;;;15.67;10.57;;;22.70;97.10;;;;;;6199718;22;20426;-96
2021/09/06 12:01:41;;;;;;;14.73;10.18;;;22.90;98.30;;;;;;6256249;22;20386;-96
2021/09/06 12:04:38;;;;;;;19.20;10.80;;;22.40;98.90;;;;;;6225103;23;20457;-96
2021/09/06 12:07:27;;;;;;;15.55;10.23;;;22.20;98.60;;;;;;6083544;23;20422;-95
2021/09/06 12:10:11;;;;;;;15.48;10.02;;;22.10;97.50;;;;;;6125683;23;20450;-96
2021/09/06 12:13:07;;;;;;;12.13;8.80;;;22.30;96.50;;;;;;6117107;23;20392;-96
2021/09/06 12:19:39;;;;;;;16.50;9.00;;;23.50;98.10;;;;;;6225375;22;20501;-96
2021/09/06 12:22:31;;;;;;;13.95;8.85;;;23.70;94.10;;;;;;6249402;22;20398;-96
2021/09/06 12:25:38;;;;;;;13.68;8.80;;;23.20;93.60;;;;;;6245832;22;20428;-96
2021/09/06 12:41:36;;;;;;;18.70;10.13;;;24.80;94.20;;;;;;6255680;22;20402;-96
2021/09/06 12:44:21;;;;;;;16.38;9.77;;;25.30;94.10;;;;;;6206903;22;20419;-96
2021/09/06 12:56:01;;;;;;;15.93;9.80;;;25.90;92.40;;;;;;6223224;22;20387;-96
2021/09/06 13:02:38;;;;;;;13.88;9.55;;;26.80;89.30;;;;;;6192847;22;20405;-96
2021/09/06 13:05:20;;;;;;;14.00;9.15;;;27.20;86.40;;;;;;6216960;23;20407;-96
2021/09/06 13:07:57;;;;;;;14.27;8.70;;;27.10;88.20;;;;;;6229429;23;20405;-96
2021/09/06 13:10:53;;;;;;;14.52;10.27;;;26.00;87.10;;;;;;6220275;22;20401;-96
2021/09/06 13:13:30;;;;;;;15.05;9.63;;;25.50;89.80;;;;;;6225289;23;20373;-95
2021/09/06 13:16:28;;;;;;;18.00;10.70;;;25.00;89.80;;;;;;6228956;23;20716;-94
2021/09/06 13:19:05;;;;;;;14.48;9.45;;;24.30;88.90;;;;;;6223835;23;20701;-96
2021/09/06 13:21:44;;;;;;;14.57;9.30;;;23.70;91.30;;;;;;6226713;23;20879;-96
2021/09/06 13:25:06;;;;;;;19.83;9.48;;;24.00;93.30;;;;;;6200861;23;20705;-95
2021/09/06 13:28:22;;;;;;;13.48;9.15;;;25.20;92.40;;;;;;6248236;22;20421;-96
2021/09/06 13:30:53;;;;;;;13.35;8.73;;;26.30;87.40;;;;;;6147789;22;20395;-95
2021/09/06 13:33:26;;;;;;;18.17;9.52;;;26.70;90.30;;;;;;6220904;22;20411;-95
2021/09/06 13:38:59;;;;;;;14.65;9.52;;;25.30;83.80;;;;;;6256018;22;20390;-95
2021/09/06 13:41:33;;;;;;;12.15;9.02;;;24.70;92.40;;;;;;6222149;22;20393;-96
2021/09/06 13:44:20;;;;;;;13.75;8.27;;;24.70;90.10;;;;;;6218553;22;20407;-96
2021/09/06 13:47:10;;;;;;;12.63;9.10;;;25.30;87.20;;;;;;6216818;22;20479;-95
2021/09/06 13:53:22;;;;;;;11.10;8.15;;;26.70;90.10;;;;;;6245653;22;20426;-96
2021/09/06 13:56:37;;;;;;;15.88;8.45;;;27.30;85.70;;;;;;6220298;22;20379;-96
2021/09/06 13:59:24;;;;;;;14.43;8.53;;;27.90;81.30;;;;;;6214621;22;20390;-95
2021/09/06 14:02:01;;;;;;;11.93;8.10;;;27.90;80.10;;;;;;6226231;22;20434;-95
2021/09/06 14:05:05;;;;;;;12.10;8.38;;;27.70;86.70;;;;;;6225422;22;20416;-96
2021/09/06 14:07:45;;;;;;;14.82;8.43;;;28.00;82.70;;;;;;6204502;23;20413;-96
2021/09/06 14:10:19;;;;;;;11.35;7.75;;;28.40;83.20;;;;;;6166924;23;20886;-96
2021/09/06 14:13:12;;;;;;;10.60;7.18;;;28.50;77.30;;;;;;6167874;23;20424;-96
2021/09/06 14:15:51;;;;;;;13.70;7.35;;;28.90;75.90;;;;;;6168376;23;20404;-96
2021/09/06 14:18:19;;;;;;;9.10;6.88;;;28.80;77.10;;;;;;6168776;23;20485;-96
2021/09/06 14:20:52;;;;;;;8.93;6.95;;;29.00;75.70;;;;;;6172751;23;20394;-96
2021/09/06 14:23:31;;;;;;;12.85;7.00;;;28.70;68.90;;;;;;6167687;23;20958;-95
2021/09/06 14:26:18;;;;;;;34.47;8.45;;;28.20;65.70;;;;;;6170421;23;20726;-96
2021/09/06 14:28:47;;;;;;;9.52;6.88;;;28.40;68.30;;;;;;6170929;23;20393;-96
2021/09/06 14:31:22;;;;;;;14.02;7.70;;;29.00;63.10;;;;;;6170796;23;20397;-95
2021/09/06 14:34:04;;;;;;;12.73;7.75;;;27.70;71.30;;;;;;6174897;23;20447;-96
2021/09/06 14:36:35;;;;;;;11.43;7.47;;;27.60;74.20;;;;;;6173618;23;20389;-96
2021/09/06 14:39:23;;;;;;;13.13;7.80;;;28.20;73.20;;;;;;6175426;23;20429;-96
2021/09/06 14:42:04;;;;;;;10.95;7.78;;;28.50;70.50;;;;;;6173320;23;20457;-95
2021/09/06 14:45:03;;;;;;;10.20;7.50;;;28.40;72.90;;;;;;6176437;23;20405;-95
2021/09/06 14:48:08;;;;;;;10.82;7.38;;;28.40;70.70;;;;;;6217139;22;20482;-96
2021/09/06 14:51:05;;;;;;;11.23;7.50;;;28.70;71.20;;;;;;6242953;22;20384;-95
2021/09/06 14:53:55;;;;;;;12.38;7.88;;;28.90;71.00;;;;;;6231308;22;20388;31
2021/09/06 15:07:10;;;;;;;11.43;7.47;;;29.80;69.00;;;;;;6259679;22;20781;-96
2021/09/06 15:10:17;;;;;;;9.00;6.68;;;29.40;64.20;;;;;;6236709;22;20384;-96
2021/09/06 15:18:54;;;;;;;11.13;7.43;;;28.90;65.00;;;;;;6251045;22;20369;-96
2021/09/06 15:21:33;;;;;;;9.98;6.88;;;27.80;70.30;;;;;;6253269;22;20393;-96
2021/09/06 15:24:13;;;;;;;12.50;7.65;;;27.10;71.10;;;;;;6234683;22;20398;-95
2021/09/06 15:26:50;;;;;;;10.65;7.63;;;26.40;72.40;;;;;;6231424;22;20465;-96
2021/09/06 15:30:12;;;;;;;11.38;7.97;;;25.80;77.00;;;;;;6251930;22;20465;-96
2021/09/06 15:32:48;;;;;;;12.88;8.18;;;24.90;78.20;;;;;;6258120;22;20393;-96
2021/09/06 15:35:19;;;;;;;10.60;7.50;;;25.40;77.30;;;;;;6250781;22;20395;-96
2021/09/06 15:38:03;;;;;;;12.45;7.35;;;26.10;71.20;;;;;;6228938;22;20390;-96
2021/09/06 15:40:38;;;;;;;10.00;7.40;;;26.70;73.00;;;;;;6229934;22;20390;-96
2021/09/06 15:43:12;;;;;;;11.52;7.38;;;27.40;70.10;;;;;;6230001;22;20533;-95
2021/09/06 15:45:39;;;;;;;10.33;7.07;;;27.70;72.50;;;;;;6226432;23;20444;-96
2021/09/06 15:48:25;;;;;;;10.80;7.25;;;27.80;70.40;;;;;;6231437;23;20390;-96
2021/09/06 15:51:03;;;;;;;11.15;7.13;;;27.80;72.40;;;;;;6213370;23;20401;-94
2021/09/06 15:53:33;;;;;;;10.85;7.28;;;27.70;71.20;;;;;;6229192;23;20390;-96
2021/09/06 15:56:00;;;;;;;15.20;7.75;;;26.50;70.60;;;;;;6230662;23;20397;-96
2021/09/06 15:58:29;;;;;;;10.88;7.32;;;25.90;73.30;;;;;;6229270;23;20397;-96
2021/09/06 16:01:06;;;;;;;13.48;7.05;;;25.80;78.30;;;;;;6229503;23;20392;-96
2021/09/06 16:03:48;;;;;;;9.88;7.40;;;25.90;76.50;;;;;;6230072;23;20392;-95
2021/09/06 16:06:27;;;;;;;13.82;7.28;;;26.10;72.90;;;;;;6230139;22;20390;-96
2021/09/06 16:09:00;;;;;;;12.38;7.30;;;26.20;76.40;;;;;;6231163;22;20380;-95
2021/09/06 16:11:34;;;;;;;12.25;7.28;;;26.30;71.00;;;;;;6231663;22;20393;-95
2021/09/06 16:14:14;;;;;;;10.13;7.38;;;26.10;71.80;;;;;;6228221;23;20390;-95
2021/09/06 16:16:46;;;;;;;10.43;7.30;;;26.20;72.20;;;;;;6228440;23;20831;-96
2021/09/06 16:19:49;;;;;;;11.70;7.72;;;26.10;72.80;;;;;;6230355;23;20386;-96
2021/09/06 16:22:46;;;;;;;9.40;7.50;;;26.00;73.10;;;;;;6232093;22;20784;-96
2021/09/06 16:25:27;;;;;;;10.80;7.68;;;25.70;75.00;;;;;;6223777;22;20410;-95
2021/09/06 16:30:52;;;;;;;9.90;7.10;;;25.60;75.40;;;;;;6237492;22;20402;-96
2021/09/06 16:33:22;;;;;;;10.80;7.15;;;25.50;73.70;;;;;;6251602;22;20386;-96
2021/09/06 16:36:00;;;;;;;10.82;7.38;;;25.40;76.90;;;;;;6250115;22;20393;-94
2021/09/06 16:38:40;;;;;;;14.10;7.93;;;25.10;78.10;;;;;;6245212;22;20397;-96
2021/09/06 16:41:13;;;;;;;14.10;8.40;;;24.90;75.50;;;;;;6230063;23;20477;-95
2021/09/06 16:43:42;;;;;;;10.85;7.80;;;24.60;80.40;;;;;;6224832;22;20407;-95
2021/09/06 16:49:03;;;;;;;10.82;7.68;;;24.00;84.10;;;;;;6165769;23;20466;-96
2021/09/06 16:51:36;;;;;;;10.98;7.32;;;23.30;85.80;;;;;;6165591;23;20399;-96
2021/09/06 16:54:13;;;;;;;12.00;7.93;;;23.10;86.70;;;;;;6165818;23;20394;-96
2021/09/06 16:56:48;;;;;;;13.10;8.07;;;22.70;89.80;;;;;;6167074;23;20441;-96
2021/09/06 16:59:23;;;;;;;10.10;7.87;;;22.20;90.40;;;;;;6169789;22;20398;-95
2021/09/06 17:02:17;;;;;;;12.43;7.47;;;21.80;90.90;;;;;;6202071;23;20388;-95
2021/09/06 17:04:59;;;;;;;10.68;7.80;;;21.30;92.30;;;;;;6202896;23;20497;-96
2021/09/06 17:07:34;;;;;;;13.38;8.05;;;20.80;93.20;;;;;;6227566;23;20395;-95
2021/09/06 17:10:33;;;;;;;12.38;8.25;;;20.40;94.10;;;;;;6204634;23;20375;-96
2021/09/06 17:13:04;;;;;;;14.50;8.80;;;20.00;94.40;;;;;;6201437;22;20387;-95
2021/09/06 17:15:37;;;;;;;12.70;8.63;;;19.70;95.70;;;;;;6204993;23;20679;-96
2021/09/06 17:21:17;;;;;;;15.37;8.80;;;19.00;96.90;;;;;;6250934;22;20386;-95
2021/09/06 17:24:04;;;;;;;14.87;8.87;;;18.60;98.50;;;;;;6245268;22;20453;-96
2021/09/06 17:26:41;;;;;;;13.35;8.98;;;18.20;99.50;;;;;;6226232;23;20387;-96
2021/09/06 17:29:21;;;;;;;14.13;9.45;;;17.80;99.90;;;;;;6227248;23;20395;-96
2021/09/06 17:31:51;;;;;;;12.80;9.27;;;17.30;99.90;;;;;;6228337;23;20388;-93
2021/09/06 17:34:34;;;;;;;13.67;9.50;;;16.90;99.90;;;;;;6223853;22;20482;-96
2021/09/06 17:37:12;;;;;;;14.38;10.18;;;16.80;99.90;;;;;;6226737;23;20455;-95
2021/09/06 17:39:44;;;;;;;15.47;9.67;;;16.60;99.90;;;;;;6225892;23;20448;-96
2021/09/06 17:42:13;;;;;;;13.95;10.13;;;16.10;99.90;;;;;;6224118;23;20392;-96
2021/09/06 17:45:00;;;;;;;14.65;10.27;;;15.80;99.90;;;;;;6203267;23;20380;-96
2021/09/06 17:48:00;;;;;;;15.70;10.60;;;15.70;99.90;;;;;;6234710;23;20430;-96
2021/09/06 17:50:35;;;;;;;15.60;10.33;;;15.60;99.90;;;;;;6205580;23;20390;-96
2021/09/06 17:53:07;;;;;;;18.20;11.60;;;15.40;99.90;;;;;;6201629;23;20920;-96
2021/09/06 17:55:39;;;;;;;18.37;10.90;;;15.40;99.90;;;;;;6202621;23;20524;-96
2021/09/06 17:58:12;;;;;;;15.73;10.87;;;15.30;99.90;;;;;;6201315;23;20390;-95
2021/09/06 18:01:02;;;;;;;17.75;10.93;;;15.20;99.90;;;;;;6200071;23;20384;-95
2021/09/06 18:03:40;;;;;;;16.20;10.82;;;15.10;99.90;;;;;;6202369;23;20387;-95
2021/09/06 18:06:22;;;;;;;15.73;10.82;;;15.00;99.90;;;;;;6200466;23;20466;-95
2021/09/06 18:09:11;;;;;;;15.45;11.52;;;14.90;99.90;;;;;;6227611;23;20470;-95
2021/09/06 18:11:50;;;;;;;19.13;11.70;;;14.70;99.90;;;;;;6197580;23;20384;-96
2021/09/06 18:14:40;;;;;;;18.88;11.98;;;14.60;99.90;;;;;;6199123;23;20391;-95
2021/09/06 18:17:28;;;;;;;20.67;11.53;;;14.40;99.90;;;;;;6201751;23;20387;-95
2021/09/06 18:20:16;;;;;;;17.27;11.43;;;14.50;99.90;;;;;;6211466;22;20383;-95
2021/09/06 18:26:45;;;;;;;18.40;11.73;;;14.20;99.90;;;;;;6229034;23;20414;-96
2021/09/06 18:30:05;;;;;;;18.13;11.50;;;14.30;99.90;;;;;;6266459;22;20380;-95
2021/09/06 18:36:56;;;;;;;19.83;11.95;;;14.30;99.90;;;;;;6078357;23;20471;-95
2021/09/06 18:40:13;;;;;;;16.73;11.13;;;14.20;99.90;;;;;;6081434;23;20513;-95
2021/09/06 18:46:51;;;;;;;;;;;;;;;;;;;;;
2021/09/06 18:50:01;;;;;;;25.35;12.27;;;13.90;99.90;;;;;;6020604;23;20395;-95
2021/09/06 18:53:08;;;;;;;;;;;;;;;;;;;;;
2021/09/06 18:59:32;;;;;;;;;;;;;;;;;;;;;
2021/09/06 19:02:40;;;;;;;20.15;12.50;;;13.90;99.90;;;;;;6020831;23;20410;-96
2021/09/06 19:05:44;;;;;;;19.13;13.00;;;13.80;99.90;;;;;;6021333;23;20399;-95
2021/09/06 19:12:40;;;;;;;17.20;12.48;;;13.60;99.90;;;;;;6067808;23;20388;-95
2021/09/06 19:15:49;;;;;;;20.75;12.32;;;13.60;99.90;;;;;;6103042;23;20381;-96
2021/09/06 19:22:40;;;;;;;19.63;12.13;;;13.70;99.90;;;;;;6193493;23;20416;-94
2021/09/06 19:26:09;;;;;;;;;;;;;;;;;;;;;
2021/09/06 19:29:24;;;;;;;17.80;12.45;;;13.60;99.90;;;;;;6193653;23;20413;-95
2021/09/06 19:32:39;;;;;;;19.70;12.17;;;13.60;99.90;;;;;;6176300;23;20373;-96
2021/09/06 19:35:56;;;;;;;16.40;11.50;;;13.30;99.90;;;;;;6027206;23;20383;-95
2021/09/06 19:39:05;;;;;;;17.93;12.13;;;13.30;99.90;;;;;;5935544;24;20403;-96
2021/09/06 19:44:50;;;;;;;16.70;11.55;;;13.30;99.90;;;;;;6230989;23;20475;-95
2021/09/06 19:48:20;;;;;;;17.67;11.30;;;13.40;99.90;;;;;;6228380;23;20415;-96
2021/09/06 19:51:30;;;;;;;19.77;12.30;;;13.20;99.90;;;;;;6197554;23;20448;-94
2021/09/06 19:54:40;;;;;;;;;;;;;;;;;;;;;
2021/09/06 19:58:00;;;;;;;17.30;11.73;;;13.10;99.90;;;;;;6075770;23;20400;-96
2021/09/06 20:00:49;;;;;;;18.15;11.93;;;13.20;99.90;;;;;;6044907;23;20415;-95
2021/09/06 20:03:45;;;;;;;18.55;11.90;;;13.20;99.90;;;;;;6063324;23;20380;-95
2021/09/06 20:06:31;;;;;;;18.95;12.65;;;13.20;99.90;;;;;;6083000;23;20483;-96
2021/09/06 20:09:24;;;;;;;;;;;;;;;;;;;;;
2021/09/06 20:12:50;;;;;;;18.23;12.80;;;13.00;99.90;;;;;;6055117;23;20388;-94
2021/09/06 20:15:51;;;;;;;17.65;12.35;;;12.90;99.90;;;;;;6115193;23;20460;-94
2021/09/06 20:18:58;;;;;;;19.90;13.20;;;13.00;99.90;;;;;;6105695;23;20870;-95
2021/09/06 20:21:55;;;;;;;21.48;13.23;;;13.00;99.90;;;;;;6052994;23;20452;-96
2021/09/06 20:24:46;;;;;;;17.63;12.18;;;13.00;99.90;;;;;;6055132;23;20403;-96
2021/09/06 20:27:30;;;;;;;19.50;12.30;;;13.00;99.90;;;;;;6052512;23;20400;-96
2021/09/06 20:30:24;;;;;;;21.38;12.07;;;12.80;99.90;;;;;;6086810;23;20436;-94
2021/09/06 20:33:17;;;;;;;19.95;12.70;;;12.80;99.90;;;;;;6110292;23;20389;-94
2021/09/06 20:36:09;;;;;;;16.85;12.40;;;12.70;99.90;;;;;;6114170;23;20391;-96
2021/09/06 20:39:23;;;;;;;16.83;12.05;;;12.50;99.90;;;;;;6103582;23;20720;-96
2021/09/06 20:42:27;;;;;;;21.27;12.73;;;12.50;99.90;;;;;;6081415;23;20458;-94
2021/09/06 20:45:30;;;;;;;20.63;12.60;;;12.50;99.90;;;;;;5993027;23;20407;-96
2021/09/06 20:48:45;;;;;;;;;;;;;;;;;;;;;
2021/09/06 20:52:32;;;;;;;;;;;;;;;;;;;;;
2021/09/06 21:02:50;;;;;;;;;;;;;;;;;;;;;
2021/09/06 21:05:43;;;;;;;21.15;11.38;;;12.30;99.90;;;;;;6031082;23;20411;-96
2021/09/06 21:08:42;;;;;;;20.63;11.77;;;12.40;99.90;;;;;;6051769;23;20475;-96
2021/09/06 21:11:37;;;;;;;18.15;11.70;;;12.40;99.90;;;;;;6162846;23;20387;-96
2021/09/06 21:14:32;;;;;;;17.38;11.65;;;12.30;99.90;;;;;;6139180;23;20395;-94
2021/09/06 21:17:34;;;;;;;14.87;11.10;;;12.40;99.90;;;;;;6139985;23;20391;-96
2021/09/06 21:20:30;;;;;;;17.63;11.55;;;12.20;99.90;;;;;;6143294;23;20401;-96
2021/09/06 21:23:25;;;;;;;17.13;11.70;;;12.30;99.90;;;;;;6142883;23;20426;-96
2021/09/06 21:26:52;;;;;;;18.85;12.30;;;12.20;99.90;;;;;;6139882;23;20379;-94
2021/09/06 21:30:22;;;;;;;22.13;12.15;;;12.30;99.90;;;;;;5998921;23;20412;-96
2021/09/06 21:33:21;;;;;;;16.70;11.38;;;12.10;99.90;;;;;;5997025;23;20487;-96
2021/09/06 21:36:23;;;;;;;22.23;12.30;;;12.30;99.90;;;;;;6047582;23;20697;-95
2021/09/06 21:39:16;;;;;;;17.95;12.40;;;12.20;99.90;;;;;;6022175;23;20472;-94
2021/09/06 21:42:10;;;;;;;19.92;12.80;;;12.20;99.90;;;;;;6027898;23;20394;-94
2021/09/06 21:56:29;;;;;;;19.70;11.50;;;12.20;99.90;;;;;;6030825;23;20557;-94
2021/09/06 22:00:06;;;;;;;;;;;;;;;;;;;;;
2021/09/06 22:06:22;;;;;;;19.25;12.38;;;12.00;99.90;;;;;;6245792;22;20394;-95
2021/09/06 22:09:48;;;;;;;;;;;;;;;;;;;;;
2021/09/06 22:13:07;;;;;;;15.27;11.48;;;12.20;99.90;;;;;;5993729;24;20365;-95
2021/09/06 22:16:28;;;;;;;18.52;12.20;;;12.10;99.90;;;;;;5968409;24;20400;-95
2021/09/06 22:19:49;;;;;;;18.47;11.87;;;12.10;99.90;;;;;;5984352;24;20401;-95
2021/09/06 22:23:15;;;;;;;;;;;;;;;;;;;;;
2021/09/06 22:26:38;;;;;;;15.57;11.10;;;11.90;99.90;;;;;;5918211;24;20447;-95
2021/09/06 22:33:32;;;;;;;19.38;11.73;;;11.90;99.90;;;;;;6090764;22;20396;-95
2021/09/06 22:39:17;;;;;;;21.08;12.45;;;11.80;99.90;;;;;;6253464;22;20390;-95
2021/09/06 22:42:36;;;;;;;16.38;10.43;;;11.80;99.90;;;;;;6223239;23;20448;-94
2021/09/06 22:45:52;;;;;;;18.23;11.48;;;11.90;99.90;;;;;;6230907;23;20425;-95
2021/09/06 22:52:36;;;;;;;;;;;;;;;;;;;;;
2021/09/06 22:55:58;;;;;;;;;;;;;;;;;;;;;
2021/09/06 22:59:14;;;;;;;18.25;11.15;;;11.70;99.90;;;;;;6255355;23;20720;-95
2021/09/06 23:03:01;;;;;;;;;;;;;;;;;;;;;
2021/09/06 23:06:29;;;;;;;21.65;11.88;;;11.80;99.90;;;;;;6178049;23;20823;-94
2021/09/06 23:10:07;;;;;;;;;;;;;;;;;;;;;
2021/09/06 23:16:57;;;;;;;;;;;;;;;;;;;;;
2021/09/06 23:20:02;;;;;;;18.73;11.90;;;11.80;99.90;;;;;;6047190;23;20385;-94
2021/09/06 23:29:53;;;;;;;19.67;11.60;;;11.90;99.90;;;;;;6301259;22;20376;-94
2021/09/06 23:33:34;;;;;;;21.77;11.30;;;11.80;99.90;;;;;;6256034;22;20388;-96
2021/09/06 23:36:45;;;;;;;17.53;11.60;;;11.70;99.90;;;;;;6039360;23;20412;-96
2021/09/06 23:43:46;;;;;;;18.63;11.57;;;11.70;99.90;;;;;;5993498;23;20388;-95
2021/09/06 23:47:10;;;;;;;17.75;11.27;;;11.80;99.90;;;;;;5999595;23;20390;-94
2021/09/06 23:50:18;;;;;;;20.45;12.13;;;11.70;99.90;;;;;;6002437;23;20408;-96
2021/09/06 23:57:28;;;;;;;16.33;10.75;;;11.60;99.90;;;;;;5909091;24;20896;-96
